createdAt,value
2019-06-27T00:00:01.679Z,9.20
2019-06-27T00:02:28.696Z,9.00
2019-06-27T00:04:55.581Z,9.25
2019-06-27T00:07:22.419Z,9.03
2019-06-27T00:09:50.115Z,9.47
2019-06-27T00:12:16.973Z,9.20
2019-06-27T00:14:43.818Z,9.80
2019-06-27T00:17:10.615Z,9.50
2019-06-27T00:19:37.450Z,9.33
2019-06-27T00:22:04.300Z,9.83
2019-06-27T00:24:31.095Z,9.00
2019-06-27T00:26:57.933Z,8.58
2019-06-27T00:29:24.728Z,8.90
2019-06-27T00:31:51.523Z,8.45
2019-06-27T00:34:18.366Z,9.08
2019-06-27T00:36:45.217Z,8.40
2019-06-27T00:39:12.003Z,8.40
2019-06-27T00:41:38.842Z,8.53
2019-06-27T00:44:05.647Z,8.53
2019-06-27T00:46:32.496Z,8.35
2019-06-27T00:48:59.291Z,8.93
2019-06-27T00:51:26.126Z,8.63
2019-06-27T00:53:52.944Z,8.28
2019-06-27T00:56:19.774Z,8.95
2019-06-27T00:58:47.284Z,8.70
2019-06-27T01:01:14.130Z,9.10
2019-06-27T01:03:40.919Z,8.93
2019-06-27T01:06:07.806Z,9.60
2019-06-27T01:08:34.608Z,7.97
2019-06-27T01:11:01.495Z,8.40
2019-06-27T01:13:28.336Z,8.58
2019-06-27T01:15:55.168Z,8.25
2019-06-27T01:18:22.015Z,8.00
2019-06-27T01:20:48.811Z,7.78
2019-06-27T01:23:15.648Z,7.80
2019-06-27T01:25:43.091Z,8.18
2019-06-27T01:28:09.888Z,7.70
2019-06-27T01:30:36.735Z,8.25
2019-06-27T01:33:03.538Z,7.10
2019-06-27T01:35:30.408Z,7.50
2019-06-27T01:37:57.199Z,6.62
2019-06-27T01:40:24.036Z,7.70
2019-06-27T01:42:50.875Z,7.67
2019-06-27T01:45:22.570Z,7.50
2019-06-27T01:47:49.365Z,7.58
2019-06-27T01:50:16.209Z,7.33
2019-06-27T01:52:43.059Z,8.33
2019-06-27T01:55:09.952Z,6.90
2019-06-27T01:57:47.006Z,7.20
2019-06-27T02:00:13.608Z,7.30
2019-06-27T02:02:40.490Z,9.33
2019-06-27T02:05:07.571Z,9.87
2019-06-27T02:07:34.568Z,9.13
2019-06-27T02:10:01.607Z,9.20
2019-06-27T02:12:28.457Z,8.43
2019-06-27T02:14:55.245Z,9.85
2019-06-27T02:17:22.090Z,10.50
2019-06-27T02:19:48.892Z,10.43
2019-06-27T02:22:15.737Z,8.63
2019-06-27T02:24:42.526Z,8.43
2019-06-27T02:27:09.387Z,8.10
2019-06-27T02:29:36.223Z,8.70
2019-06-27T02:32:03.042Z,9.18
2019-06-27T02:34:29.885Z,8.90
2019-06-27T02:36:56.738Z,8.88
2019-06-27T02:39:23.532Z,8.50
2019-06-27T02:41:50.329Z,9.70
2019-06-27T02:44:17.175Z,10.10
2019-06-27T02:46:43.964Z,9.00
2019-06-27T02:49:10.756Z,9.80
2019-06-27T02:51:37.609Z,10.47
2019-06-27T02:54:04.438Z,10.37
2019-06-27T02:56:31.269Z,10.40
2019-06-27T02:58:58.068Z,8.65
2019-06-27T03:01:24.963Z,8.60
2019-06-27T03:03:51.768Z,9.45
2019-06-27T03:06:18.561Z,9.30
2019-06-27T03:08:45.407Z,8.90
2019-06-27T03:11:13.298Z,8.70
2019-06-27T03:13:40.139Z,8.63
2019-06-27T03:16:06.943Z,9.10
2019-06-27T03:18:33.816Z,8.35
2019-06-27T03:21:00.607Z,8.58
2019-06-27T03:23:27.651Z,8.40
2019-06-27T03:25:54.503Z,9.00
2019-06-27T03:28:21.285Z,10.90
2019-06-27T03:30:48.133Z,10.68
2019-06-27T03:33:14.919Z,10.48
2019-06-27T03:35:41.760Z,11.20
2019-06-27T03:38:08.853Z,9.80
2019-06-27T03:40:35.695Z,10.70
2019-06-27T03:43:02.492Z,10.72
2019-06-27T03:45:29.332Z,10.70
2019-06-27T03:47:56.141Z,9.90
2019-06-27T03:50:22.962Z,9.60
2019-06-27T03:52:49.812Z,8.85
2019-06-27T03:55:16.686Z,9.35
2019-06-27T03:57:45.357Z,9.78
2019-06-27T04:00:19.255Z,9.60
2019-06-27T04:02:46.163Z,9.00
2019-06-27T04:05:12.963Z,10.00
2019-06-27T04:07:39.809Z,9.03
2019-06-27T04:10:06.611Z,9.00
2019-06-27T04:12:33.638Z,10.53
2019-06-27T04:15:00.481Z,10.40
2019-06-27T04:17:27.272Z,9.50
2019-06-27T04:19:54.113Z,9.50
2019-06-27T04:22:20.916Z,10.65
2019-06-27T04:24:47.772Z,10.10
2019-06-27T04:27:14.588Z,10.03
2019-06-27T04:29:41.450Z,10.25
2019-06-27T04:32:08.294Z,10.93
2019-06-27T04:34:35.412Z,10.40
2019-06-27T04:37:02.269Z,11.00
2019-06-27T04:39:29.139Z,10.10
2019-06-27T04:41:55.945Z,10.20
2019-06-27T04:44:22.816Z,10.50
2019-06-27T04:46:49.642Z,10.65
2019-06-27T04:49:16.487Z,9.13
2019-06-27T04:51:43.336Z,10.10
2019-06-27T04:54:10.134Z,10.30
2019-06-27T04:56:36.972Z,10.27
2019-06-27T04:59:03.823Z,10.83
2019-06-27T05:01:30.648Z,9.10
2019-06-27T05:03:57.494Z,9.58
2019-06-27T05:06:24.298Z,8.50
2019-06-27T05:08:51.159Z,10.10
2019-06-27T05:11:18.005Z,10.70
2019-06-27T05:13:44.794Z,10.75
2019-06-27T05:16:11.587Z,10.15
2019-06-27T05:18:38.434Z,9.30
2019-06-27T05:21:05.297Z,10.38
2019-06-27T05:23:32.107Z,10.03
2019-06-27T05:25:58.955Z,9.93
2019-06-27T05:28:25.751Z,9.93
2019-06-27T05:30:52.607Z,8.78
2019-06-27T05:33:19.437Z,9.95
2019-06-27T05:35:46.539Z,8.70
2019-06-27T05:38:13.393Z,9.50
2019-06-27T05:40:40.232Z,8.20
2019-06-27T05:43:07.081Z,8.98
2019-06-27T05:45:33.879Z,8.30
2019-06-27T05:48:00.709Z,7.85
2019-06-27T05:50:27.618Z,7.90
2019-06-27T05:52:54.459Z,8.38
2019-06-27T05:55:21.246Z,8.90
2019-06-27T05:57:48.088Z,8.28
2019-06-27T06:00:27.260Z,8.70
2019-06-27T06:02:44.355Z,9.10
2019-06-27T06:05:11.178Z,7.08
2019-06-27T06:07:38.018Z,8.48
2019-06-27T06:10:05.259Z,7.70
2019-06-27T06:12:32.051Z,8.40
2019-06-27T06:14:58.846Z,7.80
2019-06-27T06:17:25.679Z,8.70
2019-06-27T06:19:52.570Z,7.30
2019-06-27T06:22:19.396Z,7.90
2019-06-27T06:24:46.197Z,6.80
2019-06-27T06:27:13.019Z,7.70
2019-06-27T06:29:39.850Z,8.60
2019-06-27T06:32:06.631Z,7.20
2019-06-27T06:34:33.494Z,7.60
2019-06-27T06:37:00.301Z,8.90
2019-06-27T06:39:27.072Z,7.97
2019-06-27T06:41:53.925Z,8.25
2019-06-27T06:44:20.757Z,8.33
2019-06-27T06:46:47.971Z,9.00
2019-06-27T06:49:14.873Z,8.15
2019-06-27T06:51:41.662Z,9.37
2019-06-27T06:54:08.504Z,8.78
2019-06-27T06:56:35.341Z,8.40
2019-06-27T06:59:02.127Z,9.43
2019-06-27T07:01:28.980Z,8.90
2019-06-27T07:03:55.823Z,8.83
2019-06-27T07:06:22.722Z,8.95
2019-06-27T07:08:49.557Z,9.15
2019-06-27T07:11:16.648Z,9.40
2019-06-27T07:13:43.494Z,8.75
2019-06-27T07:16:10.282Z,7.40
2019-06-27T07:18:37.141Z,9.30
2019-06-27T07:21:03.990Z,10.53
2019-06-27T07:23:30.780Z,7.53
2019-06-27T07:25:57.676Z,9.73
2019-06-27T07:28:24.462Z,9.10
2019-06-27T07:30:51.296Z,9.83
2019-06-27T07:33:18.081Z,8.68
2019-06-27T07:35:44.932Z,9.70
2019-06-27T07:38:12.414Z,9.70
2019-06-27T07:40:39.252Z,8.73
2019-06-27T07:43:06.092Z,10.48
2019-06-27T07:45:32.931Z,10.13
2019-06-27T07:47:59.757Z,9.50
2019-06-27T07:50:26.552Z,10.53
2019-06-27T07:52:53.394Z,9.78
2019-06-27T07:55:22.185Z,9.75
2019-06-27T07:57:49.079Z,11.15
2019-06-27T08:00:19.525Z,11.20
2019-06-27T08:02:46.398Z,10.78
2019-06-27T08:05:13.333Z,11.80
2019-06-27T08:07:40.306Z,11.70
2019-06-27T08:10:07.619Z,10.70
2019-06-27T08:12:34.417Z,12.07
2019-06-27T08:15:01.263Z,11.15
2019-06-27T08:17:28.102Z,12.80
2019-06-27T08:19:54.882Z,12.40
2019-06-27T08:22:21.722Z,11.60
2019-06-27T08:24:48.606Z,11.85
2019-06-27T08:27:15.438Z,12.30
2019-06-27T08:29:42.220Z,12.40
2019-06-27T08:32:09.005Z,12.30
2019-06-27T08:34:35.850Z,12.35
2019-06-27T08:37:02.645Z,12.63
2019-06-27T08:39:29.437Z,12.53
2019-06-27T08:41:56.309Z,12.93
2019-06-27T08:44:23.126Z,13.40
2019-06-27T08:46:49.890Z,12.90
2019-06-27T08:49:16.720Z,12.47
2019-06-27T08:51:43.553Z,12.70
2019-06-27T08:54:10.398Z,11.93
2019-06-27T08:56:37.197Z,11.75
2019-06-27T08:59:04.128Z,12.33
2019-06-27T09:01:30.913Z,11.90
2019-06-27T09:03:57.869Z,11.40
2019-06-27T09:06:24.666Z,11.70
2019-06-27T09:08:51.454Z,11.88
2019-06-27T09:11:18.287Z,11.20
2019-06-27T09:13:45.120Z,11.10
2019-06-27T09:16:11.913Z,11.28
2019-06-27T09:18:38.714Z,11.33
2019-06-27T09:21:05.785Z,11.63
2019-06-27T09:23:32.574Z,10.13
2019-06-27T09:25:59.365Z,11.50
2019-06-27T09:28:26.238Z,11.70
2019-06-27T09:30:53.073Z,11.25
2019-06-27T09:33:20.508Z,9.88
2019-06-27T09:35:47.302Z,10.93
2019-06-27T09:38:14.134Z,11.38
2019-06-27T09:40:40.925Z,10.78
2019-06-27T09:43:07.720Z,10.95
2019-06-27T09:45:34.557Z,10.70
2019-06-27T09:48:01.345Z,10.20
2019-06-27T09:50:28.181Z,10.72
2019-06-27T09:52:54.976Z,10.88
2019-06-27T09:55:22.008Z,11.30
2019-06-27T09:57:48.798Z,12.00
2019-06-27T10:00:17.948Z,11.68
2019-06-27T10:02:51.695Z,11.65
2019-06-27T10:05:18.536Z,12.03
2019-06-27T10:07:45.339Z,13.13
2019-06-27T10:10:12.629Z,12.03
2019-06-27T10:12:42.755Z,12.90
2019-06-27T10:15:08.271Z,12.98
2019-06-27T10:17:35.053Z,12.07
2019-06-27T10:20:03.634Z,12.40
2019-06-27T10:22:30.397Z,14.55
2019-06-27T10:24:57.220Z,13.87
2019-06-27T10:27:24.056Z,15.18
2019-06-27T10:29:50.896Z,16.60
2019-06-27T10:32:17.677Z,13.20
2019-06-27T10:34:44.517Z,14.00
2019-06-27T10:37:11.316Z,14.13
2019-06-27T10:39:38.150Z,14.20
2019-06-27T10:42:05.090Z,13.38
2019-06-27T10:44:31.887Z,14.33
2019-06-27T10:46:58.735Z,13.25
2019-06-27T10:49:25.510Z,15.32
2019-06-27T10:51:52.820Z,14.38
2019-06-27T10:54:19.643Z,12.45
2019-06-27T10:56:46.437Z,15.17
2019-06-27T10:59:13.287Z,15.05
2019-06-27T11:01:40.957Z,15.25
2019-06-27T11:04:07.747Z,14.47
2019-06-27T11:06:34.606Z,13.35
2019-06-27T11:09:01.445Z,13.93
2019-06-27T11:11:28.280Z,14.40
2019-06-27T11:13:59.234Z,15.50
2019-06-27T11:16:24.535Z,13.40
2019-06-27T11:18:51.362Z,13.47
2019-06-27T11:21:18.228Z,12.82
2019-06-27T11:23:45.033Z,12.20
2019-06-27T11:26:11.977Z,13.48
2019-06-27T11:28:38.770Z,12.53
2019-06-27T11:31:05.622Z,12.80
2019-06-27T11:33:33.312Z,12.10
2019-06-27T11:36:00.157Z,12.53
2019-06-27T11:38:27.006Z,11.38
2019-06-27T11:40:53.793Z,13.68
2019-06-27T11:43:20.658Z,12.20
2019-06-27T11:45:47.465Z,11.30
2019-06-27T11:48:14.293Z,13.05
2019-06-27T11:50:41.084Z,12.70
2019-06-27T11:53:07.929Z,13.50
2019-06-27T11:55:34.734Z,12.20
2019-06-27T11:58:01.582Z,11.60
2019-06-27T12:00:29.051Z,11.83
2019-06-27T12:02:56.400Z,12.07
2019-06-27T12:05:23.234Z,11.90
2019-06-27T12:07:50.056Z,11.73
2019-06-27T12:10:17.580Z,11.93
2019-06-27T12:12:44.374Z,11.20
2019-06-27T12:15:11.357Z,11.47
2019-06-27T12:17:38.150Z,12.05
2019-06-27T12:20:06.806Z,12.15
2019-06-27T12:22:33.694Z,11.83
2019-06-27T12:25:00.569Z,12.25
2019-06-27T12:27:28.361Z,12.50
2019-06-27T12:29:55.202Z,12.30
2019-06-27T12:32:22.042Z,12.20
2019-06-27T12:34:50.075Z,12.80
2019-06-27T12:37:16.855Z,12.30
2019-06-27T12:39:43.702Z,11.45
2019-06-27T12:42:11.529Z,11.45
2019-06-27T12:44:38.348Z,12.45
2019-06-27T12:47:05.167Z,12.58
2019-06-27T12:49:56.532Z,12.53
2019-06-27T12:52:00.904Z,12.00
2019-06-27T12:54:28.343Z,11.63
2019-06-27T12:56:55.381Z,12.78
2019-06-27T12:59:23.287Z,12.10
2019-06-27T13:01:50.682Z,12.33
2019-06-27T13:04:37.336Z,12.20
2019-06-27T13:07:04.371Z,12.60
2019-06-27T13:09:31.163Z,12.73
2019-06-27T13:11:58.134Z,13.18
2019-06-27T13:14:24.910Z,11.78
2019-06-27T13:16:51.737Z,12.03
2019-06-27T13:19:18.592Z,11.83
2019-06-27T13:21:45.950Z,10.63
2019-06-27T13:24:12.740Z,10.45
2019-06-27T13:26:39.655Z,11.03
2019-06-27T13:29:06.452Z,11.73
2019-06-27T13:31:33.297Z,10.90
2019-06-27T13:34:00.134Z,10.68
2019-06-27T13:36:26.936Z,10.85
2019-06-27T13:38:53.727Z,11.60
2019-06-27T13:41:20.649Z,12.87
2019-06-27T13:43:49.481Z,9.90
2019-06-27T13:46:16.294Z,10.43
2019-06-27T13:48:43.186Z,10.20
2019-06-27T13:51:09.937Z,9.90
2019-06-27T13:53:36.768Z,9.75
2019-06-27T13:56:03.573Z,10.20
2019-06-27T13:58:30.416Z,10.10
2019-06-27T14:00:58.299Z,11.20
2019-06-27T14:03:25.090Z,10.75
2019-06-27T14:05:59.546Z,10.80
2019-06-27T14:08:26.476Z,10.10
2019-06-27T14:10:53.426Z,10.32
2019-06-27T14:13:20.425Z,10.90
2019-06-27T14:15:47.261Z,11.73
2019-06-27T14:18:14.102Z,11.22
2019-06-27T14:20:40.900Z,11.70
2019-06-27T14:23:07.743Z,12.20
2019-06-27T14:25:34.536Z,11.40
2019-06-27T14:28:01.382Z,11.40
2019-06-27T14:30:28.186Z,11.57
2019-06-27T14:32:54.989Z,10.95
2019-06-27T14:35:21.825Z,11.73
2019-06-27T14:37:48.706Z,12.10
2019-06-27T14:40:15.905Z,12.50
2019-06-27T14:42:42.698Z,13.13
2019-06-27T14:45:09.633Z,12.90
2019-06-27T14:47:36.429Z,12.60
2019-06-27T14:50:04.186Z,12.18
2019-06-27T14:52:34.697Z,11.50
2019-06-27T14:54:59.758Z,11.30
2019-06-27T14:57:26.565Z,12.00
2019-06-27T14:59:53.396Z,11.40
2019-06-27T15:02:20.213Z,10.55
2019-06-27T15:04:47.041Z,10.60
2019-06-27T15:07:13.917Z,11.43
2019-06-27T15:09:40.722Z,11.10
2019-06-27T15:12:08.284Z,10.17
2019-06-27T15:14:35.083Z,9.58
2019-06-27T15:17:01.921Z,10.48
2019-06-27T15:19:28.722Z,9.50
2019-06-27T15:21:55.564Z,9.53
2019-06-27T15:24:22.354Z,10.20
2019-06-27T15:26:49.186Z,11.38
2019-06-27T15:29:15.997Z,9.93
2019-06-27T15:31:42.843Z,10.45
2019-06-27T15:34:09.737Z,11.10
2019-06-27T15:36:36.609Z,10.00
2019-06-27T15:39:05.102Z,9.73
2019-06-27T15:41:31.950Z,9.43
2019-06-27T15:43:59.338Z,9.95
2019-06-27T15:46:26.180Z,12.10
2019-06-27T15:48:52.962Z,10.95
2019-06-27T15:51:19.805Z,11.15
2019-06-27T15:53:46.637Z,11.33
2019-06-27T15:56:13.647Z,10.93
2019-06-27T15:58:40.493Z,10.93
2019-06-27T16:01:07.333Z,9.83
2019-06-27T16:03:34.180Z,11.60
2019-06-27T16:06:09.528Z,10.15
2019-06-27T16:08:29.660Z,11.88
2019-06-27T16:10:56.510Z,11.20
2019-06-27T16:13:23.374Z,11.00
2019-06-27T16:15:50.206Z,10.40
2019-06-27T16:18:17.241Z,9.43
2019-06-27T16:20:44.082Z,9.63
2019-06-27T16:23:10.929Z,9.93
2019-06-27T16:25:37.718Z,10.32
2019-06-27T16:28:04.557Z,10.60
2019-06-27T16:30:31.394Z,9.90
2019-06-27T16:32:58.182Z,10.65
2019-06-27T16:35:25.025Z,10.20
2019-06-27T16:37:51.809Z,10.33
2019-06-27T16:40:18.717Z,10.60
2019-06-27T16:42:45.562Z,10.65
2019-06-27T16:45:12.800Z,10.80
2019-06-27T16:47:39.585Z,10.90
2019-06-27T16:50:06.877Z,11.48
2019-06-27T16:52:33.787Z,11.28
2019-06-27T16:55:01.365Z,10.80
2019-06-27T16:57:28.144Z,10.45
2019-06-27T16:59:55.034Z,11.48
2019-06-27T17:02:21.851Z,10.90
2019-06-27T17:04:48.718Z,11.08
2019-06-27T17:07:15.608Z,11.25
2019-06-27T17:09:42.524Z,12.25
2019-06-27T17:12:09.465Z,10.90
2019-06-27T17:14:36.238Z,12.00
2019-06-27T17:17:03.198Z,11.90
2019-06-27T17:19:29.991Z,11.63
2019-06-27T17:21:56.825Z,11.93
2019-06-27T17:24:23.714Z,10.72
2019-06-27T17:26:50.501Z,12.10
2019-06-27T17:29:17.366Z,11.43
2019-06-27T17:31:44.220Z,11.33
2019-06-27T17:34:14.011Z,10.85
2019-06-27T17:36:39.952Z,11.75
2019-06-27T17:39:06.811Z,10.67
2019-06-27T17:41:33.598Z,11.10
2019-06-27T17:44:00.442Z,10.78
2019-06-27T17:46:27.234Z,10.50
2019-06-27T17:48:56.955Z,9.10
2019-06-27T17:51:23.751Z,10.00
2019-06-27T17:53:50.580Z,10.30
2019-06-27T17:56:17.537Z,10.20
2019-06-27T17:58:44.381Z,9.90
2019-06-27T18:01:14.558Z,8.83
2019-06-27T18:03:41.415Z,9.03
2019-06-27T18:06:08.283Z,9.38
2019-06-27T18:08:35.170Z,9.93
2019-06-27T18:11:01.954Z,8.80
2019-06-27T18:13:28.840Z,9.18
2019-06-27T18:15:55.617Z,8.30
2019-06-27T18:18:22.461Z,8.10
2019-06-27T18:20:49.306Z,8.45
2019-06-27T18:23:16.094Z,9.45
2019-06-27T18:25:42.981Z,8.27
2019-06-27T18:28:09.771Z,9.13
2019-06-27T18:30:36.624Z,8.18
2019-06-27T18:33:03.767Z,8.83
2019-06-27T18:35:30.572Z,8.60
2019-06-27T18:37:57.524Z,8.55
2019-06-27T18:40:24.829Z,7.65
2019-06-27T18:42:51.630Z,8.70
2019-06-27T18:45:18.460Z,7.78
2019-06-27T18:47:45.579Z,6.75
2019-06-27T18:50:12.866Z,6.40
2019-06-27T18:52:39.701Z,5.65
2019-06-27T18:55:06.837Z,5.22
2019-06-27T18:57:33.682Z,5.22
2019-06-27T19:00:00.518Z,5.28
2019-06-27T19:02:27.832Z,4.62
2019-06-27T19:04:54.631Z,4.70
2019-06-27T19:07:21.487Z,4.73
2019-06-27T19:09:48.383Z,4.12
2019-06-27T19:12:16.124Z,3.80
2019-06-27T19:14:43.919Z,4.22
2019-06-27T19:17:10.749Z,4.45
2019-06-27T19:19:54.544Z,3.60
2019-06-27T19:22:39.837Z,3.40
2019-06-27T19:25:08.130Z,4.90
2019-06-27T19:27:34.966Z,4.00
2019-06-27T19:30:02.607Z,4.10
2019-06-27T19:32:29.460Z,4.50
2019-06-27T19:34:56.250Z,4.50
2019-06-27T19:37:23.053Z,4.55
2019-06-27T19:39:49.898Z,4.10
2019-06-27T19:42:16.695Z,4.60
2019-06-27T19:44:43.547Z,4.00
2019-06-27T19:47:10.365Z,4.20
2019-06-27T19:49:37.475Z,3.33
2019-06-27T19:52:04.661Z,3.70
2019-06-27T19:54:31.455Z,3.50
2019-06-27T19:56:58.294Z,3.50
2019-06-27T19:59:25.410Z,3.10
2019-06-27T20:01:52.287Z,3.30
2019-06-27T20:04:19.129Z,3.10
2019-06-27T20:06:45.923Z,2.98
2019-06-27T20:09:12.763Z,3.20
2019-06-27T20:11:39.652Z,3.00
2019-06-27T20:14:06.875Z,2.90
2019-06-27T20:16:33.644Z,3.70
2019-06-27T20:19:00.453Z,2.62
2019-06-27T20:21:27.293Z,3.27
2019-06-27T20:23:54.082Z,2.80
2019-06-27T20:26:20.868Z,2.90
2019-06-27T20:28:47.713Z,3.17
2019-06-27T20:31:14.514Z,2.87
2019-06-27T20:33:41.359Z,3.10
2019-06-27T20:36:08.197Z,2.90
2019-06-27T20:38:35.546Z,2.75
2019-06-27T20:41:02.523Z,2.62
2019-06-27T20:43:29.316Z,2.40
2019-06-27T20:45:56.166Z,2.30
2019-06-27T20:48:23.309Z,2.45
2019-06-27T20:50:50.462Z,2.90
2019-06-27T20:53:17.262Z,1.90
2019-06-27T20:55:44.102Z,2.02
2019-06-27T20:58:10.907Z,2.50
2019-06-27T21:00:38.514Z,2.30
2019-06-27T21:03:05.273Z,2.30
2019-06-27T21:05:32.217Z,1.90
2019-06-27T21:07:59.025Z,2.00
2019-06-27T21:10:25.856Z,2.10
2019-06-27T21:12:52.711Z,2.00
2019-06-27T21:15:19.657Z,2.22
2019-06-27T21:17:46.434Z,2.10
2019-06-27T21:20:13.572Z,1.75
2019-06-27T21:22:41.112Z,2.10
2019-06-27T21:25:08.254Z,2.30
2019-06-27T21:27:35.039Z,2.10
2019-06-27T21:30:01.902Z,2.17
2019-06-27T21:32:31.724Z,2.25
2019-06-27T21:34:57.430Z,2.00
2019-06-27T21:37:24.225Z,2.10
2019-06-27T21:39:51.073Z,2.85
2019-06-27T21:42:18.796Z,2.20
2019-06-27T21:44:45.638Z,2.37
2019-06-27T21:47:12.517Z,2.90
2019-06-27T21:49:39.350Z,2.50
2019-06-27T21:52:06.135Z,2.60
2019-06-27T21:54:32.970Z,2.60
2019-06-27T21:56:59.811Z,2.45
2019-06-27T21:59:26.612Z,3.12
2019-06-27T22:01:53.439Z,2.60
2019-06-27T22:04:33.696Z,2.50
2019-06-27T22:07:00.562Z,2.37
2019-06-27T22:09:27.397Z,2.40
2019-06-27T22:11:54.230Z,2.20
2019-06-27T22:14:21.017Z,2.40
2019-06-27T22:16:47.857Z,2.80
2019-06-27T22:19:14.701Z,2.10
2019-06-27T22:21:41.541Z,2.00
2019-06-27T22:24:08.339Z,2.30
2019-06-27T22:26:35.219Z,2.00
2019-06-27T22:29:01.994Z,2.17
2019-06-27T22:31:28.846Z,2.20
2019-06-27T22:33:55.632Z,2.40
2019-06-27T22:36:22.481Z,2.10
2019-06-27T22:39:07.514Z,2.00
2019-06-27T22:41:52.757Z,2.20
2019-06-27T22:44:38.071Z,1.82
2019-06-27T22:47:23.428Z,1.80
2019-06-27T22:49:50.864Z,2.25
2019-06-27T22:52:25.786Z,1.80
2019-06-27T22:54:58.125Z,2.20
2019-06-27T22:57:24.919Z,2.00
2019-06-27T22:59:51.817Z,2.30
2019-06-27T23:02:18.593Z,2.40
2019-06-27T23:04:45.498Z,2.20
2019-06-27T23:07:12.278Z,2.50
2019-06-27T23:09:39.117Z,2.07
2019-06-27T23:12:05.918Z,2.30
2019-06-27T23:14:32.759Z,2.17
2019-06-27T23:16:59.605Z,2.50
2019-06-27T23:19:26.392Z,2.50
2019-06-27T23:21:53.277Z,2.27
2019-06-27T23:24:20.073Z,2.40
2019-06-27T23:26:46.897Z,2.42
2019-06-27T23:29:13.690Z,2.22
2019-06-27T23:31:40.535Z,2.22
2019-06-27T23:34:07.331Z,2.15
2019-06-27T23:36:34.145Z,2.20
2019-06-27T23:39:00.938Z,2.50
2019-06-27T23:41:27.773Z,2.80
2019-06-27T23:43:54.618Z,2.80
2019-06-27T23:46:41.057Z,2.52
2019-06-27T23:49:08.906Z,2.60
2019-06-27T23:51:35.695Z,2.80
2019-06-27T23:54:02.537Z,2.33
2019-06-27T23:56:29.329Z,2.50
2019-06-27T23:58:56.170Z,2.10
